map of ASH home
ASH - Airport
Location
City:  Nashua, New Hampshire, United States
Name:Boire Field
ICAO:KASH
IATA:ASH
FAA LID:ASH

Details
Type:Airport (Airfield)
Use:Public/Civil
Latitude:4246'57"N (42.782414)
Longitude:7130'51"W (-71.514093)
Datum:WGS 1984
Elevation:200 ft (61 m)
Variation:14.57W (WMM2015 magnetic declination)
0.06 annual change
Runways:1
Longest:6000 × 100 ft (1829 × 30.5 m), paved

Time
Time Zone:UTC-5 (DST-4)
Local Time:

Weather
METAR:KASH 142356Z 26005KT 10SM CLR M08/M16 A2987 RMK AO2 SLP125 T10781156 11022 21078 51040

Related Locations
Nearby:
Farthest:MQZ: 11725 mi / 18870 km
Margaret River [Margaret River Airport], WA, AU

Find:

   beyond  
but within

Other Information
Maps:
NOTAMs:
Links:
Sources:

  
flag of United States
flag of New Hampshire
  

Airport Diagram

Airport diagram for ASH

Airport diagram PDF

Sectional Chart

Flight Planning
at skyvector.com

Satellite Image

Google Maps Satellite view

 

Copyright © 2004-2017 Karl L. Swartz. All rights reserved.
The Great Circle Mapper name and logo are trademarks of the Great Circle Mapper.
All other trademarks mentioned herein belong to their respective owners.
Please see credits for attibutions and further copyright information.

  Follow gcmap on Facebook Follow gcmap on Twitter Follow gcmap on Google+ GCmap on LinkedIn

hCard Microformat

Geo Microformat